Accueil
METAR-TAF:

METAR-TAF

Aéroports :

Saint-Jean, Nouveau-Brunswick, Canada

Aéroport de Saint-Jean

latitude: 45-20N, longitude: 065-53W, altitude: 103 m

Observation

Le bulletin a été fait il y a 24 minutes, à 02:00 UTC
Vent 13 kt de nord
Température -5°C
Humidité 49%
Pression 1037 hPa
Visibilité: 24.1 km
Nuages fragmentés à une hauteur de 17000 ft

METAR: CYSJ 230200Z 35013KT 15SM BKN170 M05/M14 A3062 RMK AC5 SLP377

Heure: 22:24 (02:24 UTC)

Prévision

Le bulletin a été fait il y a 2 heures et 46 minutes, à 23:38 UTC
Prévision valable du 23 à 00 UTC au 23 à 12 UTC
Vent 8 kt de ouest/nord-ouest
Visibilité: 10 km
Nuages fragmentés à une hauteur de 16000 ft
A partir de 23 à 0200 UTC
Vent 8 kt de nord/nord-ouest
Visibilité: 10 km
Ciel clair
Evoluant progressivement
du 23 à 07 UTC au 23 à 09 UTC
Vent 8 kt de nord/nord-est

TAF: CYSJ 222338Z 2300/2312 30008KT P6SM BKN160 FM230200 34008KT P6SM SKC BECMG 2307/2309 02008KT RMK NXT FCST BY 230600Z

Observations et prévisions météorologiques de plus de 4000 aéroports (messages METAR et TAF).

Les stations disponibles sont représentées par des disques jaunes et rouges sur la carte.

Passer la souris dessus pour voir le nom de la station.

Cliquer dessus pour voir les observations et prévisions météorologiques.

Pour changer de carte: cliquez sur les boutons verts avec une croix noire pour zoomer, sur le bouton vert avec un tiret pour effectuer un zoom arrière, ou sur les flèches vertes pour les cartes adjacentes.


METAR-TAF: